Time;durP1;ratioP1;P1;durP2;ratioP2;P2;SDS_P1;SDS_P2;PMS_P1;PMS_P2;Temp;Humidity;BMP_temperature;BMP_pressure;BME280_temperature;BME280_humidity;BME280_pressure;Samples;Min_cycle;Max_cycle;Signal;HPM_P1;HPM_P2
2022/12/15 00:48:02;;;;;;;11.27;6.68;;;0.40;99.90;;;;;;21140828;28;20050;-77
2022/12/15 01:29:01;;;;;;;20.05;8.85;;;0.30;99.90;;;;;;21155798;28;20036;-78
2022/12/15 01:39:02;;;;;;;23.40;10.18;;;0.30;99.90;;;;;;21173110;28;20080;-78
2022/12/15 01:49:15;;;;;;;16.10;8.85;;;0.30;99.90;;;;;;21089037;28;20397;-77
2022/12/15 01:59:21;;;;;;;17.55;9.23;;;0.20;99.90;;;;;;21087513;28;20032;-77
2022/12/15 02:09:24;;;;;;;18.48;8.63;;;0.20;99.90;;;;;;21068269;28;20119;-77
2022/12/15 02:19:46;;;;;;;17.40;8.55;;;0.20;99.90;;;;;;21162979;28;20489;-78
2022/12/15 02:29:50;;;;;;;19.58;8.48;;;0.20;99.90;;;;;;21152777;28;20122;-79
2022/12/15 02:39:51;;;;;;;15.10;7.65;;;0.30;99.90;;;;;;21169554;28;20035;-77
2022/12/15 02:50:06;;;;;;;12.40;7.20;;;0.30;99.90;;;;;;21149421;28;20542;-77
2022/12/15 03:00:10;;;;;;;13.07;6.97;;;0.20;99.90;;;;;;21053467;22;20132;-81
2022/12/15 03:10:12;;;;;;;15.55;7.88;;;0.20;99.90;;;;;;21036700;28;20048;-82
2022/12/15 03:20:14;;;;;;;18.58;8.43;;;0.20;99.90;;;;;;20928438;28;20120;-81
2022/12/15 03:30:15;;;;;;;13.77;6.80;;;0.20;99.90;;;;;;20936749;28;20092;-81
2022/12/15 03:40:16;;;;;;;18.42;8.40;;;0.10;99.90;;;;;;21016809;28;20028;-82
2022/12/15 03:50:19;;;;;;;12.55;7.35;;;0.10;99.90;;;;;;21016212;28;20024;-80
2022/12/15 04:00:21;;;;;;;15.65;6.82;;;0.10;99.90;;;;;;21013380;28;20039;-81
2022/12/15 04:10:26;;;;;;;14.75;7.68;;;0.10;99.90;;;;;;20997659;28;20025;-81
2022/12/15 04:20:26;;;;;;;14.35;6.90;;;0.10;99.90;;;;;;20932573;28;20033;-82
2022/12/15 05:32:26;;;;;;;13.13;5.68;;;0.10;99.90;;;;;;20946816;28;20087;-81
2022/12/15 05:42:26;;;;;;;14.85;5.75;;;0.20;99.90;;;;;;20946626;28;20020;-82
2022/12/15 05:52:27;;;;;;;10.77;5.68;;;0.20;99.90;;;;;;21016335;28;20060;-81
2022/12/15 06:02:28;;;;;;;13.65;6.40;;;0.10;99.90;;;;;;21024582;28;20512;-82
2022/12/15 06:12:29;;;;;;;14.57;7.05;;;0.10;99.90;;;;;;21000236;28;20033;-80
2022/12/15 06:22:30;;;;;;;16.95;7.88;;;0.00;99.90;;;;;;20914812;28;20037;-82
2022/12/15 06:32:35;;;;;;;11.70;6.85;;;0.10;99.90;;;;;;20934927;28;20039;-81
2022/12/15 06:42:35;;;;;;;12.93;6.60;;;0.10;99.90;;;;;;20953602;28;20111;-81
2022/12/15 06:52:36;;;;;;;12.90;6.47;;;0.10;99.90;;;;;;21018465;28;20035;-81
2022/12/15 07:02:38;;;;;;;14.07;7.32;;;0.20;99.90;;;;;;21015437;28;20025;-82
2022/12/15 07:12:38;;;;;;;38.20;18.00;;;0.20;99.90;;;;;;20995186;28;20033;-81
2022/12/15 07:22:39;;;;;;;20.55;9.55;;;0.30;99.90;;;;;;20932875;28;20086;-82
2022/12/15 07:32:41;;;;;;;20.75;9.95;;;0.30;99.90;;;;;;20908172;28;20067;-81
2022/12/15 07:42:42;;;;;;;19.58;8.05;;;0.30;99.90;;;;;;20972579;28;20612;-82
2022/12/15 07:52:42;;;;;;;18.10;9.57;;;0.30;99.90;;;;;;20929907;28;20082;-81
2022/12/15 08:02:43;;;;;;;18.77;9.20;;;0.30;99.90;;;;;;20929300;28;20033;-80
2022/12/15 08:12:44;;;;;;;20.65;10.05;;;0.30;99.90;;;;;;20929443;28;20025;-83
2022/12/15 08:22:45;;;;;;;18.83;8.23;;;0.40;99.90;;;;;;20928143;28;20148;-80
2022/12/15 08:32:46;;;;;;;17.17;8.35;;;0.50;99.90;;;;;;20923158;28;20025;-81
2022/12/15 08:42:47;;;;;;;17.88;8.15;;;0.70;99.90;;;;;;20917830;28;20037;-81
2022/12/15 08:52:47;;;;;;;17.08;8.45;;;0.70;99.90;;;;;;20959318;22;20062;-80
2022/12/15 09:02:48;;;;;;;33.13;9.15;;;0.90;99.90;;;;;;20944589;28;20508;-81
2022/12/15 09:12:50;;;;;;;16.27;9.35;;;0.70;99.90;;;;;;20943857;28;20037;-80
2022/12/15 09:22:50;;;;;;;27.80;12.38;;;0.80;99.90;;;;;;20923708;28;20037;-79
2022/12/15 09:32:51;;;;;;;25.33;12.45;;;0.90;99.90;;;;;;20929260;28;20041;-81
2022/12/15 09:42:55;;;;;;;19.30;9.75;;;1.00;99.90;;;;;;20911285;28;20446;-81
2022/12/15 09:52:59;;;;;;;17.15;9.05;;;0.90;99.90;;;;;;20928804;28;20028;-81
2022/12/15 10:03:29;;;;;;;20.33;9.07;;;1.00;99.90;;;;;;20930301;28;20108;-83
2022/12/15 10:13:41;;;;;;;14.32;7.35;;;1.00;99.90;;;;;;20864309;28;20045;-82
2022/12/15 10:23:42;;;;;;;16.05;8.30;;;1.10;99.90;;;;;;20923136;28;20162;-81
2022/12/15 10:33:49;;;;;;;15.38;8.75;;;1.30;99.90;;;;;;20922103;28;20037;-82
2022/12/15 10:43:52;;;;;;;21.73;10.05;;;1.30;99.90;;;;;;20923583;28;20048;-83
2022/12/15 10:53:59;;;;;;;22.27;10.65;;;1.10;99.90;;;;;;20922985;28;20044;-82
2022/12/15 11:04:00;;;;;;;25.02;12.70;;;1.20;99.90;;;;;;20923018;28;20033;-82
2022/12/15 11:14:10;;;;;;;29.92;13.07;;;1.10;99.90;;;;;;20925565;28;20304;-83
2022/12/15 11:24:46;;;;;;;32.37;12.67;;;1.20;99.90;;;;;;20932069;28;20044;-83
2022/12/15 11:34:47;;;;;;;28.48;11.68;;;1.40;99.90;;;;;;20919972;28;20028;-82
2022/12/15 11:45:41;;;;;;;27.35;11.18;;;1.20;99.90;;;;;;20952160;28;20063;-82
2022/12/15 11:55:56;;;;;;;26.35;11.27;;;1.40;99.90;;;;;;20955741;28;20044;-81
2022/12/15 12:06:28;;;;;;;31.58;12.70;;;1.70;99.90;;;;;;21001189;28;20035;-81
2022/12/15 12:16:32;;;;;;;30.83;13.27;;;1.70;99.90;;;;;;20912908;28;20041;-82
2022/12/15 12:26:52;;;;;;;29.52;13.35;;;1.80;99.90;;;;;;20817160;28;20099;-81
2022/12/15 12:36:56;;;;;;;25.42;11.50;;;2.00;99.90;;;;;;20835332;28;20045;-81
2022/12/15 12:47:33;;;;;;;23.08;11.90;;;1.60;99.90;;;;;;20894346;28;20061;-82
2022/12/15 12:57:42;;;;;;;21.55;10.95;;;1.80;99.90;;;;;;20888257;28;20090;-82
2022/12/15 13:08:04;;;;;;;24.63;11.57;;;2.10;99.90;;;;;;20912369;28;20127;-80
2022/12/15 13:18:23;;;;;;;26.10;12.10;;;2.10;99.90;;;;;;20974356;28;20514;-81
2022/12/15 13:28:23;;;;;;;23.83;12.68;;;1.70;99.90;;;;;;20994708;28;20028;-80
2022/12/15 13:38:52;;;;;;;29.60;14.88;;;1.80;99.90;;;;;;20996684;28;20033;-81
2022/12/15 13:49:09;;;;;;;32.58;14.60;;;1.90;99.90;;;;;;20924157;28;20059;-81
2022/12/15 13:59:25;;;;;;;25.45;13.25;;;2.00;99.90;;;;;;20917698;28;20392;-81
2022/12/15 14:09:28;;;;;;;28.25;15.18;;;2.10;99.90;;;;;;20916196;28;20093;-82
2022/12/15 14:19:38;;;;;;;29.20;15.02;;;2.10;99.90;;;;;;20885750;28;20029;-82
2022/12/15 14:29:38;;;;;;;38.05;15.48;;;2.10;99.90;;;;;;20878593;28;20376;-81
2022/12/15 14:39:43;;;;;;;30.25;13.65;;;2.20;99.90;;;;;;20881317;28;20034;-83
2022/12/15 14:49:45;;;;;;;30.80;14.13;;;2.20;99.90;;;;;;20880387;28;20032;-82
2022/12/15 14:59:47;;;;;;;31.88;15.05;;;2.20;99.90;;;;;;20979695;22;20056;-81
2022/12/15 15:09:49;;;;;;;38.25;14.68;;;2.10;99.90;;;;;;21004400;28;20058;-83
2022/12/15 15:20:00;;;;;;;30.35;14.38;;;2.10;99.90;;;;;;20993150;28;20047;-81
2022/12/15 15:30:22;;;;;;;36.33;15.40;;;2.00;99.90;;;;;;20977119;28;20039;-81
2022/12/15 15:40:22;;;;;;;36.58;15.57;;;2.00;99.90;;;;;;20993186;28;20446;-83
2022/12/15 15:50:27;;;;;;;40.67;15.60;;;2.00;99.90;;;;;;20933066;28;20040;-83
2022/12/15 16:00:28;;;;;;;45.65;19.50;;;1.90;99.90;;;;;;20988578;28;20106;-83
2022/12/15 16:10:29;;;;;;;34.85;15.85;;;1.90;99.90;;;;;;20951706;28;20028;-83
2022/12/15 16:20:30;;;;;;;43.75;19.05;;;2.00;99.90;;;;;;20978739;28;20020;-83
2022/12/15 16:30:31;;;;;;;74.20;28.00;;;1.90;99.90;;;;;;20937138;28;20071;-83
2022/12/15 16:40:37;;;;;;;40.30;17.23;;;1.90;99.90;;;;;;20960444;28;20032;-83
2022/12/15 16:50:40;;;;;;;40.80;17.05;;;1.80;99.90;;;;;;20980463;28;20173;-80
2022/12/15 17:00:43;;;;;;;57.30;23.70;;;1.70;99.90;;;;;;20958800;28;20047;-83
2022/12/15 17:10:46;;;;;;;45.53;20.50;;;1.90;99.90;;;;;;20983670;28;20320;-84
2022/12/15 17:20:47;;;;;;;57.40;20.90;;;1.90;99.90;;;;;;20966515;28;20035;-83
2022/12/15 17:30:50;;;;;;;51.35;20.17;;;1.90;99.90;;;;;;20991253;28;20404;-82
2022/12/15 17:40:51;;;;;;;46.67;19.67;;;1.80;99.90;;;;;;20958536;28;20060;-83
2022/12/15 17:50:52;;;;;;;49.15;19.60;;;1.80;99.90;;;;;;20987083;28;20044;-80
2022/12/15 18:00:55;;;;;;;47.50;18.58;;;1.80;99.90;;;;;;20931731;28;20099;-80
2022/12/15 18:10:56;;;;;;;47.95;20.23;;;1.60;99.90;;;;;;20967331;28;20449;-82
2022/12/15 18:21:00;;;;;;;53.90;20.48;;;1.60;99.90;;;;;;20988983;28;20059;-79
2022/12/15 18:31:19;;;;;;;47.85;18.85;;;1.60;99.90;;;;;;20957686;28;20024;-82
2022/12/15 18:41:20;;;;;;;54.80;19.00;;;1.60;99.90;;;;;;20962510;28;20033;-80
2022/12/15 18:51:22;;;;;;;78.28;27.02;;;1.60;99.90;;;;;;21028350;28;20043;-78
2022/12/15 19:01:23;;;;;;;294.90;32.33;;;1.30;99.90;;;;;;21010956;28;20024;-82
2022/12/15 19:11:30;;;;;;;135.18;25.02;;;0.90;99.90;;;;;;21011450;28;20029;-84
2022/12/15 19:31:54;;;;;;;96.78;24.02;;;0.40;99.90;;;;;;21036305;28;20032;-79
2022/12/15 19:41:55;;;;;;;94.00;22.77;;;0.40;99.90;;;;;;20993289;28;20092;-80
2022/12/15 19:51:56;;;;;;;63.85;19.40;;;0.30;99.90;;;;;;20981595;28;20498;-81
2022/12/15 20:01:57;;;;;;;62.30;20.13;;;0.50;99.90;;;;;;21011138;28;20066;-80
2022/12/15 20:11:57;;;;;;;78.28;22.35;;;0.50;99.90;;;;;;21019382;28;20037;-79
2022/12/15 20:22:01;;;;;;;60.47;19.40;;;0.30;99.90;;;;;;21001053;28;20040;-81
2022/12/15 20:32:01;;;;;;;62.15;18.90;;;0.20;99.90;;;;;;20984303;28;20448;-82
2022/12/15 20:42:02;;;;;;;56.78;19.90;;;0.20;99.90;;;;;;20978060;28;20396;-78
2022/12/15 20:52:03;;;;;;;62.83;18.23;;;0.20;99.90;;;;;;20993815;22;20027;-80
2022/12/15 21:02:33;;;;;;;60.45;20.45;;;0.20;99.90;;;;;;21089631;28;20028;-81
2022/12/15 21:12:34;;;;;;;56.85;19.98;;;0.10;99.90;;;;;;21096554;28;20373;-80
2022/12/15 21:22:35;;;;;;;52.13;19.70;;;0.00;99.90;;;;;;21129140;28;20097;-79
2022/12/15 21:32:36;;;;;;;52.75;18.60;;;0.00;99.90;;;;;;21087026;28;20028;-80
2022/12/15 21:42:38;;;;;;;54.05;20.25;;;-0.10;99.90;;;;;;21117705;28;20032;-81
2022/12/15 21:52:39;;;;;;;53.72;20.80;;;-0.20;99.90;;;;;;21071601;28;20039;-81
2022/12/15 22:02:40;;;;;;;55.60;19.15;;;-0.30;99.90;;;;;;21089070;28;20055;-80
2022/12/15 22:12:43;;;;;;;54.30;20.55;;;-0.30;99.90;;;;;;21073609;28;20047;-81
2022/12/15 22:22:45;;;;;;;50.38;18.92;;;-0.30;99.90;;;;;;21171256;28;20031;-80
2022/12/15 22:32:46;;;;;;;59.67;22.13;;;-0.30;99.90;;;;;;21152624;28;20039;-79
2022/12/15 22:42:52;;;;;;;65.38;22.20;;;-0.30;99.90;;;;;;21155799;28;20027;-80
2022/12/15 22:52:53;;;;;;;53.17;18.60;;;-0.40;99.90;;;;;;21172962;28;20284;-80
2022/12/15 23:02:56;;;;;;;48.30;20.98;;;-0.40;99.90;;;;;;21169477;28;20118;-80
2022/12/15 23:12:57;;;;;;;58.40;21.60;;;-0.50;99.90;;;;;;21152394;28;20028;-81
2022/12/15 23:22:57;;;;;;;54.10;22.27;;;-0.40;99.90;;;;;;21150631;28;20053;-81
2022/12/15 23:32:58;;;;;;;65.95;23.02;;;-0.50;99.90;;;;;;21148786;28;20035;-80
2022/12/15 23:42:59;;;;;;;70.53;25.95;;;-0.80;99.90;;;;;;21166913;28;20043;-80
2022/12/15 23:53:00;;;;;;;75.47;27.60;;;-0.80;99.90;;;;;;21166994;28;20392;-80
